Terminal Aerodrome Forecast
Issued by NWS

Home | Current Version | Previous Version | Text Only | Print | Product List | Glossary On
Versions: 1 2 3 4 5 6 7 8 9 10 11 12 13 14 15 16 17 18 19 20 21 22 23 24
899
FTUS41 KPBZ 122338
TAFMGW
TAF
KMGW 122338Z 1300/1324 25005KT 3SM -SHSN OVC040
     FM130300 28010G20KT 4SM -SHSN OVC015
      TEMPO 1304/1306 30015G25KT 1SM -SHSN OVC007
     FM130700 30010G20KT P6SM -SHSN BKN025=

USA.gov is the U.S. government's official web portal to all federal, state and local government web resources and services.